sensor_id;sensor_type;location;lat;lon;timestamp;P1;durP1;ratioP1;P2;durP2;ratioP2
77733;SDS011;66902;41.720;44.796;2023-07-22T00:02:04;2.80;;;2.60;;
77733;SDS011;66902;41.720;44.796;2023-07-22T00:04:36;6.00;;;2.40;;
77733;SDS011;66902;41.720;44.796;2023-07-22T00:07:10;2.60;;;2.40;;
77733;SDS011;66902;41.720;44.796;2023-07-22T00:09:44;3.00;;;2.70;;
77733;SDS011;66902;41.720;44.796;2023-07-22T00:12:22;2.30;;;2.10;;
77733;SDS011;66902;41.720;44.796;2023-07-22T00:15:02;6.40;;;2.60;;
77733;SDS011;66902;41.720;44.796;2023-07-22T00:17:36;4.10;;;2.60;;
77733;SDS011;66902;41.720;44.796;2023-07-22T00:20:10;6.40;;;2.20;;
77733;SDS011;66902;41.720;44.796;2023-07-22T00:22:46;2.90;;;2.30;;
77733;SDS011;66902;41.720;44.796;2023-07-22T00:25:19;3.60;;;2.60;;
77733;SDS011;66902;41.720;44.796;2023-07-22T00:27:57;2.30;;;2.10;;
77733;SDS011;66902;41.720;44.796;2023-07-22T00:30:30;3.70;;;2.20;;
77733;SDS011;66902;41.720;44.796;2023-07-22T00:33:03;2.50;;;2.30;;
77733;SDS011;66902;41.720;44.796;2023-07-22T00:35:36;4.10;;;2.50;;
77733;SDS011;66902;41.720;44.796;2023-07-22T00:38:07;2.70;;;2.50;;
77733;SDS011;66902;41.720;44.796;2023-07-22T00:40:40;2.50;;;2.30;;
77733;SDS011;66902;41.720;44.796;2023-07-22T00:43:12;3.10;;;2.80;;
77733;SDS011;66902;41.720;44.796;2023-07-22T00:45:42;3.00;;;2.10;;
77733;SDS011;66902;41.720;44.796;2023-07-22T00:48:14;2.10;;;1.90;;
77733;SDS011;66902;41.720;44.796;2023-07-22T00:50:47;2.50;;;2.30;;
77733;SDS011;66902;41.720;44.796;2023-07-22T00:53:18;2.80;;;2.50;;
77733;SDS011;66902;41.720;44.796;2023-07-22T00:55:49;2.80;;;2.50;;
77733;SDS011;66902;41.720;44.796;2023-07-22T00:58:20;2.70;;;2.50;;
77733;SDS011;66902;41.720;44.796;2023-07-22T01:00:51;4.90;;;2.90;;
77733;SDS011;66902;41.720;44.796;2023-07-22T01:03:22;5.30;;;3.30;;
77733;SDS011;66902;41.720;44.796;2023-07-22T01:05:53;5.20;;;3.00;;
77733;SDS011;66902;41.720;44.796;2023-07-22T01:08:27;3.90;;;2.50;;
77733;SDS011;66902;41.720;44.796;2023-07-22T01:10:57;2.90;;;2.70;;
77733;SDS011;66902;41.720;44.796;2023-07-22T01:13:30;2.90;;;2.70;;
77733;SDS011;66902;41.720;44.796;2023-07-22T01:16:02;6.80;;;2.90;;
77733;SDS011;66902;41.720;44.796;2023-07-22T01:18:33;2.30;;;2.10;;
77733;SDS011;66902;41.720;44.796;2023-07-22T01:21:04;6.20;;;2.90;;
77733;SDS011;66902;41.720;44.796;2023-07-22T01:23:36;3.20;;;2.90;;
77733;SDS011;66902;41.720;44.796;2023-07-22T01:26:08;4.40;;;2.90;;
77733;SDS011;66902;41.720;44.796;2023-07-22T01:28:39;2.50;;;2.30;;
77733;SDS011;66902;41.720;44.796;2023-07-22T01:31:10;3.60;;;2.60;;
77733;SDS011;66902;41.720;44.796;2023-07-22T01:33:45;3.70;;;2.50;;
77733;SDS011;66902;41.720;44.796;2023-07-22T01:36:16;5.70;;;3.10;;
77733;SDS011;66902;41.720;44.796;2023-07-22T01:38:46;3.40;;;2.60;;
77733;SDS011;66902;41.720;44.796;2023-07-22T01:41:18;3.10;;;2.80;;
77733;SDS011;66902;41.720;44.796;2023-07-22T01:43:49;3.00;;;2.70;;
77733;SDS011;66902;41.720;44.796;2023-07-22T01:46:19;2.40;;;2.20;;
77733;SDS011;66902;41.720;44.796;2023-07-22T01:48:52;2.90;;;2.70;;
77733;SDS011;66902;41.720;44.796;2023-07-22T01:51:24;4.00;;;2.20;;
77733;SDS011;66902;41.720;44.796;2023-07-22T01:53:55;2.40;;;2.20;;
77733;SDS011;66902;41.720;44.796;2023-07-22T01:56:25;2.50;;;2.30;;
77733;SDS011;66902;41.720;44.796;2023-07-22T01:58:57;4.00;;;2.80;;
77733;SDS011;66902;41.720;44.796;2023-07-22T02:01:28;3.10;;;2.20;;
77733;SDS011;66902;41.720;44.796;2023-07-22T02:04:00;3.40;;;2.70;;
77733;SDS011;66902;41.720;44.796;2023-07-22T02:06:31;5.30;;;2.30;;
77733;SDS011;66902;41.720;44.796;2023-07-22T02:09:03;2.80;;;2.60;;
77733;SDS011;66902;41.720;44.796;2023-07-22T02:11:36;4.10;;;2.90;;
77733;SDS011;66902;41.720;44.796;2023-07-22T02:14:08;3.30;;;3.00;;
77733;SDS011;66902;41.720;44.796;2023-07-22T02:16:43;5.00;;;2.40;;
77733;SDS011;66902;41.720;44.796;2023-07-22T02:19:13;2.80;;;2.40;;
77733;SDS011;66902;41.720;44.796;2023-07-22T02:21:44;4.00;;;2.70;;
77733;SDS011;66902;41.720;44.796;2023-07-22T02:24:16;2.30;;;2.10;;
77733;SDS011;66902;41.720;44.796;2023-07-22T02:26:47;4.50;;;2.40;;
77733;SDS011;66902;41.720;44.796;2023-07-22T02:29:19;2.40;;;2.20;;
77733;SDS011;66902;41.720;44.796;2023-07-22T02:31:52;4.30;;;2.50;;
77733;SDS011;66902;41.720;44.796;2023-07-22T02:34:25;3.30;;;2.00;;
77733;SDS011;66902;41.720;44.796;2023-07-22T02:36:55;3.10;;;2.40;;
77733;SDS011;66902;41.720;44.796;2023-07-22T02:39:26;3.40;;;2.00;;
77733;SDS011;66902;41.720;44.796;2023-07-22T02:41:56;3.80;;;1.70;;
77733;SDS011;66902;41.720;44.796;2023-07-22T02:44:28;4.00;;;1.90;;
77733;SDS011;66902;41.720;44.796;2023-07-22T02:46:58;2.30;;;1.90;;
77733;SDS011;66902;41.720;44.796;2023-07-22T02:49:29;5.50;;;2.10;;
77733;SDS011;66902;41.720;44.796;2023-07-22T02:52:03;2.20;;;2.00;;
77733;SDS011;66902;41.720;44.796;2023-07-22T02:54:38;3.60;;;2.20;;
77733;SDS011;66902;41.720;44.796;2023-07-22T02:57:12;2.40;;;1.50;;
77733;SDS011;66902;41.720;44.796;2023-07-22T02:59:44;2.80;;;1.80;;
77733;SDS011;66902;41.720;44.796;2023-07-22T03:02:14;5.50;;;1.40;;
77733;SDS011;66902;41.720;44.796;2023-07-22T03:04:45;1.80;;;1.70;;
77733;SDS011;66902;41.720;44.796;2023-07-22T03:07:16;1.30;;;1.00;;
77733;SDS011;66902;41.720;44.796;2023-07-22T03:09:48;3.80;;;1.50;;
77733;SDS011;66902;41.720;44.796;2023-07-22T03:12:19;3.30;;;1.70;;
77733;SDS011;66902;41.720;44.796;2023-07-22T03:14:50;3.60;;;1.60;;
77733;SDS011;66902;41.720;44.796;2023-07-22T03:17:27;1.60;;;1.30;;
77733;SDS011;66902;41.720;44.796;2023-07-22T03:20:01;5.80;;;1.40;;
77733;SDS011;66902;41.720;44.796;2023-07-22T03:22:37;1.90;;;1.70;;
77733;SDS011;66902;41.720;44.796;2023-07-22T03:25:08;1.60;;;1.20;;
77733;SDS011;66902;41.720;44.796;2023-07-22T03:27:39;1.70;;;1.00;;
77733;SDS011;66902;41.720;44.796;2023-07-22T03:30:13;2.40;;;1.40;;
77733;SDS011;66902;41.720;44.796;2023-07-22T03:32:48;1.90;;;1.10;;
77733;SDS011;66902;41.720;44.796;2023-07-22T03:35:19;3.90;;;0.90;;
77733;SDS011;66902;41.720;44.796;2023-07-22T03:37:52;6.10;;;1.20;;
77733;SDS011;66902;41.720;44.796;2023-07-22T03:40:24;2.40;;;1.60;;
77733;SDS011;66902;41.720;44.796;2023-07-22T03:43:01;0.90;;;0.70;;
77733;SDS011;66902;41.720;44.796;2023-07-22T03:45:34;4.80;;;1.00;;
77733;SDS011;66902;41.720;44.796;2023-07-22T03:48:06;1.30;;;1.00;;
77733;SDS011;66902;41.720;44.796;2023-07-22T03:50:38;2.20;;;0.90;;
77733;SDS011;66902;41.720;44.796;2023-07-22T03:53:09;7.00;;;1.20;;
77733;SDS011;66902;41.720;44.796;2023-07-22T03:55:39;2.40;;;1.20;;
77733;SDS011;66902;41.720;44.796;2023-07-22T03:58:10;2.30;;;1.10;;
77733;SDS011;66902;41.720;44.796;2023-07-22T04:00:41;2.10;;;1.30;;
77733;SDS011;66902;41.720;44.796;2023-07-22T04:03:13;1.30;;;1.20;;
77733;SDS011;66902;41.720;44.796;2023-07-22T04:05:44;4.30;;;1.60;;
77733;SDS011;66902;41.720;44.796;2023-07-22T04:08:25;6.90;;;1.30;;
77733;SDS011;66902;41.720;44.796;2023-07-22T04:10:56;3.20;;;1.10;;
77733;SDS011;66902;41.720;44.796;2023-07-22T04:13:30;1.30;;;0.90;;
77733;SDS011;66902;41.720;44.796;2023-07-22T04:16:02;2.20;;;1.00;;
77733;SDS011;66902;41.720;44.796;2023-07-22T04:18:33;2.20;;;1.20;;
77733;SDS011;66902;41.720;44.796;2023-07-22T04:21:03;1.50;;;1.20;;
77733;SDS011;66902;41.720;44.796;2023-07-22T04:23:34;4.10;;;0.90;;
77733;SDS011;66902;41.720;44.796;2023-07-22T04:26:06;2.40;;;1.00;;
77733;SDS011;66902;41.720;44.796;2023-07-22T04:28:37;3.00;;;0.80;;
77733;SDS011;66902;41.720;44.796;2023-07-22T04:31:10;2.50;;;1.20;;
77733;SDS011;66902;41.720;44.796;2023-07-22T04:33:41;1.00;;;0.70;;
77733;SDS011;66902;41.720;44.796;2023-07-22T04:36:12;2.20;;;0.80;;
77733;SDS011;66902;41.720;44.796;2023-07-22T04:38:43;1.20;;;0.70;;
77733;SDS011;66902;41.720;44.796;2023-07-22T04:41:13;1.60;;;0.60;;
77733;SDS011;66902;41.720;44.796;2023-07-22T04:43:44;1.30;;;0.70;;
77733;SDS011;66902;41.720;44.796;2023-07-22T04:46:15;1.50;;;0.90;;
77733;SDS011;66902;41.720;44.796;2023-07-22T04:48:47;1.40;;;0.80;;
77733;SDS011;66902;41.720;44.796;2023-07-22T04:51:18;0.80;;;0.60;;
77733;SDS011;66902;41.720;44.796;2023-07-22T04:53:49;1.50;;;0.70;;
77733;SDS011;66902;41.720;44.796;2023-07-22T04:56:20;1.10;;;1.00;;
77733;SDS011;66902;41.720;44.796;2023-07-22T04:58:52;3.70;;;0.80;;
77733;SDS011;66902;41.720;44.796;2023-07-22T05:01:23;1.90;;;1.00;;
77733;SDS011;66902;41.720;44.796;2023-07-22T05:03:54;2.60;;;0.90;;
77733;SDS011;66902;41.720;44.796;2023-07-22T05:06:28;3.90;;;0.90;;
77733;SDS011;66902;41.720;44.796;2023-07-22T05:09:01;2.90;;;1.30;;
77733;SDS011;66902;41.720;44.796;2023-07-22T05:11:33;3.00;;;0.70;;
77733;SDS011;66902;41.720;44.796;2023-07-22T05:14:08;3.30;;;1.10;;
77733;SDS011;66902;41.720;44.796;2023-07-22T05:16:38;1.10;;;0.80;;
77733;SDS011;66902;41.720;44.796;2023-07-22T05:19:09;1.00;;;0.60;;
77733;SDS011;66902;41.720;44.796;2023-07-22T05:21:40;5.60;;;0.90;;
77733;SDS011;66902;41.720;44.796;2023-07-22T05:24:11;1.40;;;0.80;;
77733;SDS011;66902;41.720;44.796;2023-07-22T05:26:42;1.60;;;1.20;;
77733;SDS011;66902;41.720;44.796;2023-07-22T05:29:33;2.40;;;0.90;;
77733;SDS011;66902;41.720;44.796;2023-07-22T05:32:07;2.90;;;1.00;;
77733;SDS011;66902;41.720;44.796;2023-07-22T05:34:58;2.60;;;0.90;;
77733;SDS011;66902;41.720;44.796;2023-07-22T05:37:32;1.80;;;1.00;;
77733;SDS011;66902;41.720;44.796;2023-07-22T05:40:04;4.50;;;0.90;;
77733;SDS011;66902;41.720;44.796;2023-07-22T05:42:41;5.70;;;1.10;;
77733;SDS011;66902;41.720;44.796;2023-07-22T05:45:20;1.80;;;0.50;;
77733;SDS011;66902;41.720;44.796;2023-07-22T05:47:53;6.40;;;0.80;;
77733;SDS011;66902;41.720;44.796;2023-07-22T05:50:25;1.70;;;0.90;;
77733;SDS011;66902;41.720;44.796;2023-07-22T05:53:01;0.90;;;0.90;;
77733;SDS011;66902;41.720;44.796;2023-07-22T05:55:32;2.20;;;0.60;;
77733;SDS011;66902;41.720;44.796;2023-07-22T05:58:10;4.50;;;0.80;;
77733;SDS011;66902;41.720;44.796;2023-07-22T06:00:54;1.30;;;0.80;;
77733;SDS011;66902;41.720;44.796;2023-07-22T06:03:28;1.40;;;0.80;;
77733;SDS011;66902;41.720;44.796;2023-07-22T06:05:59;0.70;;;0.60;;
77733;SDS011;66902;41.720;44.796;2023-07-22T06:08:30;2.70;;;0.90;;
77733;SDS011;66902;41.720;44.796;2023-07-22T06:11:01;0.50;;;0.50;;
77733;SDS011;66902;41.720;44.796;2023-07-22T06:13:33;2.50;;;0.90;;
77733;SDS011;66902;41.720;44.796;2023-07-22T06:16:05;0.70;;;0.50;;
77733;SDS011;66902;41.720;44.796;2023-07-22T06:18:37;3.30;;;1.20;;
77733;SDS011;66902;41.720;44.796;2023-07-22T06:21:10;2.30;;;0.50;;
77733;SDS011;66902;41.720;44.796;2023-07-22T06:23:42;2.80;;;1.20;;
77733;SDS011;66902;41.720;44.796;2023-07-22T06:26:13;3.30;;;0.80;;
77733;SDS011;66902;41.720;44.796;2023-07-22T06:28:44;1.90;;;0.90;;
77733;SDS011;66902;41.720;44.796;2023-07-22T06:31:15;1.30;;;0.80;;
77733;SDS011;66902;41.720;44.796;2023-07-22T06:33:47;4.40;;;0.90;;
77733;SDS011;66902;41.720;44.796;2023-07-22T06:36:18;3.10;;;1.00;;
77733;SDS011;66902;41.720;44.796;2023-07-22T06:38:49;2.40;;;0.90;;
77733;SDS011;66902;41.720;44.796;2023-07-22T06:41:19;3.50;;;2.50;;
77733;SDS011;66902;41.720;44.796;2023-07-22T06:43:52;1.30;;;1.10;;
77733;SDS011;66902;41.720;44.796;2023-07-22T06:46:24;3.60;;;0.80;;
77733;SDS011;66902;41.720;44.796;2023-07-22T06:48:57;2.60;;;1.40;;
77733;SDS011;66902;41.720;44.796;2023-07-22T06:51:30;3.50;;;0.90;;
77733;SDS011;66902;41.720;44.796;2023-07-22T06:54:01;2.60;;;0.90;;
77733;SDS011;66902;41.720;44.796;2023-07-22T06:56:32;3.20;;;1.60;;
77733;SDS011;66902;41.720;44.796;2023-07-22T06:59:03;3.10;;;1.20;;
77733;SDS011;66902;41.720;44.796;2023-07-22T07:01:37;2.10;;;1.00;;
77733;SDS011;66902;41.720;44.796;2023-07-22T07:04:07;3.40;;;1.10;;
77733;SDS011;66902;41.720;44.796;2023-07-22T07:06:38;3.50;;;0.90;;
77733;SDS011;66902;41.720;44.796;2023-07-22T07:09:09;4.20;;;0.90;;
77733;SDS011;66902;41.720;44.796;2023-07-22T07:11:40;5.00;;;0.90;;
77733;SDS011;66902;41.720;44.796;2023-07-22T07:14:11;3.50;;;1.40;;
77733;SDS011;66902;41.720;44.796;2023-07-22T07:16:43;1.70;;;0.60;;
77733;SDS011;66902;41.720;44.796;2023-07-22T07:19:16;3.20;;;1.30;;
77733;SDS011;66902;41.720;44.796;2023-07-22T07:21:46;1.20;;;0.70;;
77733;SDS011;66902;41.720;44.796;2023-07-22T07:24:28;2.90;;;1.50;;
77733;SDS011;66902;41.720;44.796;2023-07-22T07:26:59;2.10;;;1.20;;
77733;SDS011;66902;41.720;44.796;2023-07-22T07:29:32;2.30;;;1.10;;
77733;SDS011;66902;41.720;44.796;2023-07-22T07:32:23;2.40;;;1.10;;
77733;SDS011;66902;41.720;44.796;2023-07-22T07:34:55;4.50;;;1.70;;
77733;SDS011;66902;41.720;44.796;2023-07-22T07:37:29;6.50;;;1.60;;
77733;SDS011;66902;41.720;44.796;2023-07-22T07:40:02;3.30;;;1.90;;
77733;SDS011;66902;41.720;44.796;2023-07-22T07:42:37;3.50;;;1.50;;
77733;SDS011;66902;41.720;44.796;2023-07-22T07:45:24;2.60;;;1.50;;
77733;SDS011;66902;41.720;44.796;2023-07-22T07:47:56;7.20;;;1.90;;
77733;SDS011;66902;41.720;44.796;2023-07-22T07:50:29;3.80;;;2.00;;
77733;SDS011;66902;41.720;44.796;2023-07-22T07:53:01;2.90;;;1.80;;
77733;SDS011;66902;41.720;44.796;2023-07-22T07:55:32;8.30;;;1.90;;
77733;SDS011;66902;41.720;44.796;2023-07-22T07:58:04;4.60;;;1.90;;
77733;SDS011;66902;41.720;44.796;2023-07-22T08:03:12;3.10;;;1.60;;
77733;SDS011;66902;41.720;44.796;2023-07-22T08:05:45;9.40;;;1.90;;
77733;SDS011;66902;41.720;44.796;2023-07-22T08:08:22;2.60;;;1.40;;
77733;SDS011;66902;41.720;44.796;2023-07-22T08:11:08;7.10;;;1.80;;
77733;SDS011;66902;41.720;44.796;2023-07-22T08:13:50;6.70;;;1.90;;
77733;SDS011;66902;41.720;44.796;2023-07-22T08:16:30;2.10;;;1.40;;
77733;SDS011;66902;41.720;44.796;2023-07-22T08:19:14;4.70;;;1.80;;
77733;SDS011;66902;41.720;44.796;2023-07-22T08:21:46;7.10;;;1.70;;
77733;SDS011;66902;41.720;44.796;2023-07-22T08:24:19;3.70;;;1.70;;
77733;SDS011;66902;41.720;44.796;2023-07-22T08:26:57;4.90;;;2.00;;
77733;SDS011;66902;41.720;44.796;2023-07-22T08:29:37;3.70;;;2.00;;
77733;SDS011;66902;41.720;44.796;2023-07-22T08:32:13;6.80;;;1.40;;
77733;SDS011;66902;41.720;44.796;2023-07-22T08:34:49;3.50;;;1.90;;
77733;SDS011;66902;41.720;44.796;2023-07-22T08:37:36;8.80;;;2.60;;
77733;SDS011;66902;41.720;44.796;2023-07-22T08:40:56;5.80;;;2.00;;
77733;SDS011;66902;41.720;44.796;2023-07-22T08:43:30;3.10;;;2.40;;
77733;SDS011;66902;41.720;44.796;2023-07-22T08:46:01;6.50;;;2.30;;
77733;SDS011;66902;41.720;44.796;2023-07-22T08:48:32;9.50;;;2.80;;
77733;SDS011;66902;41.720;44.796;2023-07-22T08:51:15;7.20;;;3.00;;
77733;SDS011;66902;41.720;44.796;2023-07-22T08:53:53;8.80;;;2.60;;
77733;SDS011;66902;41.720;44.796;2023-07-22T08:56:42;4.40;;;2.30;;
77733;SDS011;66902;41.720;44.796;2023-07-22T08:59:23;9.10;;;2.80;;
77733;SDS011;66902;41.720;44.796;2023-07-22T09:02:04;6.70;;;2.20;;
77733;SDS011;66902;41.720;44.796;2023-07-22T09:04:38;7.10;;;4.00;;
77733;SDS011;66902;41.720;44.796;2023-07-22T09:07:16;6.40;;;3.10;;
77733;SDS011;66902;41.720;44.796;2023-07-22T09:10:10;3.10;;;2.10;;
77733;SDS011;66902;41.720;44.796;2023-07-22T09:12:46;8.50;;;2.80;;
77733;SDS011;66902;41.720;44.796;2023-07-22T09:15:17;8.00;;;2.30;;
77733;SDS011;66902;41.720;44.796;2023-07-22T09:17:51;4.40;;;2.20;;
77733;SDS011;66902;41.720;44.796;2023-07-22T09:20:23;6.50;;;2.30;;
77733;SDS011;66902;41.720;44.796;2023-07-22T09:22:57;18.90;;;3.90;;
77733;SDS011;66902;41.720;44.796;2023-07-22T09:25:42;10.10;;;3.00;;
77733;SDS011;66902;41.720;44.796;2023-07-22T09:28:18;6.80;;;2.40;;
77733;SDS011;66902;41.720;44.796;2023-07-22T09:30:50;5.70;;;3.20;;
77733;SDS011;66902;41.720;44.796;2023-07-22T09:33:35;8.40;;;3.00;;
77733;SDS011;66902;41.720;44.796;2023-07-22T09:36:07;6.90;;;2.60;;
77733;SDS011;66902;41.720;44.796;2023-07-22T09:38:40;6.50;;;3.40;;
77733;SDS011;66902;41.720;44.796;2023-07-22T09:41:13;12.70;;;2.70;;
77733;SDS011;66902;41.720;44.796;2023-07-22T09:43:48;5.90;;;2.80;;
77733;SDS011;66902;41.720;44.796;2023-07-22T09:46:20;9.60;;;2.60;;
77733;SDS011;66902;41.720;44.796;2023-07-22T09:49:00;5.00;;;1.70;;
77733;SDS011;66902;41.720;44.796;2023-07-22T09:51:36;10.10;;;3.50;;
77733;SDS011;66902;41.720;44.796;2023-07-22T09:54:29;11.20;;;2.60;;
77733;SDS011;66902;41.720;44.796;2023-07-22T09:57:03;8.60;;;2.80;;
77733;SDS011;66902;41.720;44.796;2023-07-22T09:59:35;6.10;;;1.80;;
77733;SDS011;66902;41.720;44.796;2023-07-22T10:02:07;13.50;;;2.90;;
77733;SDS011;66902;41.720;44.796;2023-07-22T10:04:42;8.00;;;3.30;;
77733;SDS011;66902;41.720;44.796;2023-07-22T10:07:15;10.30;;;3.20;;
77733;SDS011;66902;41.720;44.796;2023-07-22T10:09:46;13.20;;;3.80;;
77733;SDS011;66902;41.720;44.796;2023-07-22T10:12:18;10.10;;;2.70;;
77733;SDS011;66902;41.720;44.796;2023-07-22T10:14:49;10.60;;;3.00;;
77733;SDS011;66902;41.720;44.796;2023-07-22T10:17:22;14.30;;;3.90;;
77733;SDS011;66902;41.720;44.796;2023-07-22T10:19:58;13.00;;;3.30;;
77733;SDS011;66902;41.720;44.796;2023-07-22T10:22:33;16.30;;;2.70;;
77733;SDS011;66902;41.720;44.796;2023-07-22T10:25:06;12.60;;;3.50;;
77733;SDS011;66902;41.720;44.796;2023-07-22T10:27:37;14.60;;;4.20;;
77733;SDS011;66902;41.720;44.796;2023-07-22T10:30:09;13.80;;;2.80;;
77733;SDS011;66902;41.720;44.796;2023-07-22T10:32:41;22.00;;;3.70;;
77733;SDS011;66902;41.720;44.796;2023-07-22T10:35:17;13.80;;;3.50;;
77733;SDS011;66902;41.720;44.796;2023-07-22T10:37:53;15.30;;;3.20;;
77733;SDS011;66902;41.720;44.796;2023-07-22T10:40:28;8.00;;;2.70;;
77733;SDS011;66902;41.720;44.796;2023-07-22T10:43:00;17.90;;;3.50;;
77733;SDS011;66902;41.720;44.796;2023-07-22T10:45:36;17.70;;;3.30;;
77733;SDS011;66902;41.720;44.796;2023-07-22T10:48:13;9.50;;;2.60;;
77733;SDS011;66902;41.720;44.796;2023-07-22T10:50:51;10.80;;;3.10;;
77733;SDS011;66902;41.720;44.796;2023-07-22T10:53:29;14.00;;;4.40;;
77733;SDS011;66902;41.720;44.796;2023-07-22T10:56:04;9.70;;;3.90;;
77733;SDS011;66902;41.720;44.796;2023-07-22T11:01:30;5.70;;;2.40;;
77733;SDS011;66902;41.720;44.796;2023-07-22T11:04:05;9.90;;;2.80;;
77733;SDS011;66902;41.720;44.796;2023-07-22T11:06:55;5.30;;;1.90;;
77733;SDS011;66902;41.720;44.796;2023-07-22T11:09:36;16.00;;;3.00;;
77733;SDS011;66902;41.720;44.796;2023-07-22T11:12:17;14.90;;;2.60;;
77733;SDS011;66902;41.720;44.796;2023-07-22T11:17:33;10.10;;;3.40;;
77733;SDS011;66902;41.720;44.796;2023-07-22T11:20:10;8.00;;;2.70;;
77733;SDS011;66902;41.720;44.796;2023-07-22T11:22:45;4.20;;;2.30;;
77733;SDS011;66902;41.720;44.796;2023-07-22T11:25:19;13.10;;;3.20;;
77733;SDS011;66902;41.720;44.796;2023-07-22T11:28:05;7.20;;;2.40;;
77733;SDS011;66902;41.720;44.796;2023-07-22T11:30:48;23.30;;;3.90;;
77733;SDS011;66902;41.720;44.796;2023-07-22T11:33:54;10.80;;;3.00;;
77733;SDS011;66902;41.720;44.796;2023-07-22T11:36:38;16.70;;;3.20;;
77733;SDS011;66902;41.720;44.796;2023-07-22T11:39:11;13.50;;;3.50;;
77733;SDS011;66902;41.720;44.796;2023-07-22T11:41:42;11.10;;;3.00;;
77733;SDS011;66902;41.720;44.796;2023-07-22T11:44:14;9.20;;;3.20;;
77733;SDS011;66902;41.720;44.796;2023-07-22T11:47:05;10.70;;;2.90;;
77733;SDS011;66902;41.720;44.796;2023-07-22T11:49:43;13.40;;;2.50;;
77733;SDS011;66902;41.720;44.796;2023-07-22T11:52:20;15.10;;;3.10;;
77733;SDS011;66902;41.720;44.796;2023-07-22T11:55:08;10.90;;;3.90;;
77733;SDS011;66902;41.720;44.796;2023-07-22T11:57:53;8.70;;;3.30;;
77733;SDS011;66902;41.720;44.796;2023-07-22T12:00:47;14.90;;;3.20;;
77733;SDS011;66902;41.720;44.796;2023-07-22T12:03:57;8.80;;;3.30;;
77733;SDS011;66902;41.720;44.796;2023-07-22T12:09:03;13.40;;;3.20;;
77733;SDS011;66902;41.720;44.796;2023-07-22T12:12:02;10.80;;;3.20;;
77733;SDS011;66902;41.720;44.796;2023-07-22T12:14:40;10.10;;;3.30;;
77733;SDS011;66902;41.720;44.796;2023-07-22T12:17:16;12.20;;;2.90;;
77733;SDS011;66902;41.720;44.796;2023-07-22T12:19:57;8.30;;;3.00;;
77733;SDS011;66902;41.720;44.796;2023-07-22T12:22:33;7.90;;;3.30;;
77733;SDS011;66902;41.720;44.796;2023-07-22T12:25:04;6.00;;;2.70;;
77733;SDS011;66902;41.720;44.796;2023-07-22T12:27:37;12.90;;;3.10;;
77733;SDS011;66902;41.720;44.796;2023-07-22T12:30:08;13.70;;;3.80;;
77733;SDS011;66902;41.720;44.796;2023-07-22T12:32:40;6.90;;;3.10;;
77733;SDS011;66902;41.720;44.796;2023-07-22T12:35:11;11.00;;;3.60;;
77733;SDS011;66902;41.720;44.796;2023-07-22T12:37:43;18.40;;;5.40;;
77733;SDS011;66902;41.720;44.796;2023-07-22T12:40:15;13.90;;;2.40;;
77733;SDS011;66902;41.720;44.796;2023-07-22T12:42:48;13.50;;;3.10;;
77733;SDS011;66902;41.720;44.796;2023-07-22T12:45:18;18.50;;;3.40;;
77733;SDS011;66902;41.720;44.796;2023-07-22T12:47:49;15.00;;;3.50;;
77733;SDS011;66902;41.720;44.796;2023-07-22T12:50:21;6.10;;;3.00;;
77733;SDS011;66902;41.720;44.796;2023-07-22T12:52:52;9.60;;;2.90;;
77733;SDS011;66902;41.720;44.796;2023-07-22T12:55:23;6.10;;;2.40;;
77733;SDS011;66902;41.720;44.796;2023-07-22T12:57:58;8.50;;;3.10;;
77733;SDS011;66902;41.720;44.796;2023-07-22T13:00:34;8.20;;;2.40;;
77733;SDS011;66902;41.720;44.796;2023-07-22T13:03:15;9.80;;;3.40;;
77733;SDS011;66902;41.720;44.796;2023-07-22T13:05:51;8.00;;;2.90;;
77733;SDS011;66902;41.720;44.796;2023-07-22T13:08:32;7.30;;;2.30;;
77733;SDS011;66902;41.720;44.796;2023-07-22T13:11:06;9.30;;;2.60;;
77733;SDS011;66902;41.720;44.796;2023-07-22T13:13:41;11.00;;;2.90;;
77733;SDS011;66902;41.720;44.796;2023-07-22T13:16:11;14.20;;;6.60;;
77733;SDS011;66902;41.720;44.796;2023-07-22T13:18:43;16.00;;;4.90;;
77733;SDS011;66902;41.720;44.796;2023-07-22T13:21:31;11.10;;;3.50;;
77733;SDS011;66902;41.720;44.796;2023-07-22T13:24:03;8.30;;;3.50;;
77733;SDS011;66902;41.720;44.796;2023-07-22T13:26:41;12.80;;;4.20;;
77733;SDS011;66902;41.720;44.796;2023-07-22T13:29:22;9.90;;;3.00;;
77733;SDS011;66902;41.720;44.796;2023-07-22T13:31:52;8.20;;;3.20;;
77733;SDS011;66902;41.720;44.796;2023-07-22T13:34:26;14.40;;;3.10;;
77733;SDS011;66902;41.720;44.796;2023-07-22T13:36:59;12.70;;;3.80;;
77733;SDS011;66902;41.720;44.796;2023-07-22T13:39:32;11.20;;;3.60;;
77733;SDS011;66902;41.720;44.796;2023-07-22T13:42:12;8.80;;;3.10;;
77733;SDS011;66902;41.720;44.796;2023-07-22T13:44:46;18.80;;;6.30;;
77733;SDS011;66902;41.720;44.796;2023-07-22T13:47:17;9.50;;;2.80;;
77733;SDS011;66902;41.720;44.796;2023-07-22T13:49:50;11.20;;;3.80;;
77733;SDS011;66902;41.720;44.796;2023-07-22T13:52:23;15.00;;;2.50;;
77733;SDS011;66902;41.720;44.796;2023-07-22T13:54:54;7.70;;;3.50;;
77733;SDS011;66902;41.720;44.796;2023-07-22T13:57:31;15.60;;;2.90;;
77733;SDS011;66902;41.720;44.796;2023-07-22T14:00:02;10.70;;;2.80;;
77733;SDS011;66902;41.720;44.796;2023-07-22T14:02:36;12.60;;;2.80;;
77733;SDS011;66902;41.720;44.796;2023-07-22T14:05:08;16.10;;;4.00;;
77733;SDS011;66902;41.720;44.796;2023-07-22T14:07:41;13.80;;;4.10;;
77733;SDS011;66902;41.720;44.796;2023-07-22T14:10:13;9.30;;;3.50;;
77733;SDS011;66902;41.720;44.796;2023-07-22T14:12:43;15.50;;;2.80;;
77733;SDS011;66902;41.720;44.796;2023-07-22T14:15:15;9.90;;;3.10;;
77733;SDS011;66902;41.720;44.796;2023-07-22T14:17:47;8.40;;;2.60;;
77733;SDS011;66902;41.720;44.796;2023-07-22T14:20:20;11.90;;;3.20;;
77733;SDS011;66902;41.720;44.796;2023-07-22T14:22:51;10.90;;;2.60;;
77733;SDS011;66902;41.720;44.796;2023-07-22T14:25:23;12.30;;;3.50;;
77733;SDS011;66902;41.720;44.796;2023-07-22T14:27:54;15.30;;;3.50;;
77733;SDS011;66902;41.720;44.796;2023-07-22T14:30:25;6.70;;;3.20;;
77733;SDS011;66902;41.720;44.796;2023-07-22T14:32:56;15.20;;;3.50;;
77733;SDS011;66902;41.720;44.796;2023-07-22T14:35:27;11.20;;;2.90;;
77733;SDS011;66902;41.720;44.796;2023-07-22T14:38:05;13.50;;;3.70;;
77733;SDS011;66902;41.720;44.796;2023-07-22T14:40:36;12.80;;;3.90;;
77733;SDS011;66902;41.720;44.796;2023-07-22T14:43:08;11.00;;;3.00;;
77733;SDS011;66902;41.720;44.796;2023-07-22T14:45:43;12.80;;;3.70;;
77733;SDS011;66902;41.720;44.796;2023-07-22T14:48:21;13.60;;;3.10;;
77733;SDS011;66902;41.720;44.796;2023-07-22T14:50:52;18.30;;;4.10;;
77733;SDS011;66902;41.720;44.796;2023-07-22T14:53:23;13.90;;;3.60;;
77733;SDS011;66902;41.720;44.796;2023-07-22T14:55:53;11.60;;;3.80;;
77733;SDS011;66902;41.720;44.796;2023-07-22T14:58:25;21.20;;;4.70;;
77733;SDS011;66902;41.720;44.796;2023-07-22T15:00:56;15.30;;;5.70;;
77733;SDS011;66902;41.720;44.796;2023-07-22T15:03:31;11.30;;;4.70;;
77733;SDS011;66902;41.720;44.796;2023-07-22T15:06:04;11.20;;;2.80;;
77733;SDS011;66902;41.720;44.796;2023-07-22T15:11:37;13.60;;;3.60;;
77733;SDS011;66902;41.720;44.796;2023-07-22T15:14:08;14.00;;;3.00;;
77733;SDS011;66902;41.720;44.796;2023-07-22T15:16:40;23.70;;;4.00;;
77733;SDS011;66902;41.720;44.796;2023-07-22T15:19:19;24.80;;;4.30;;
77733;SDS011;66902;41.720;44.796;2023-07-22T15:21:54;10.00;;;3.40;;
77733;SDS011;66902;41.720;44.796;2023-07-22T15:24:27;17.20;;;8.10;;
77733;SDS011;66902;41.720;44.796;2023-07-22T15:27:01;18.30;;;8.10;;